Time;durP1;ratioP1;P1;durP2;ratioP2;P2;SDS_P1;SDS_P2;PMS_P1;PMS_P2;Temp;Humidity;BMP_temperature;BMP_pressure;BME280_temperature;BME280_humidity;BME280_pressure;Samples;Min_cycle;Max_cycle;Signal;HPM_P1;HPM_P2
2021/09/09 00:01:42;;;;;;;;;;;17.30;99.90;;;;;;5106686;28;19923;-88
2021/09/09 00:04:07;;;;;;;;;;;17.30;99.90;;;;;;5113964;27;20553;-88
2021/09/09 00:06:33;;;;;;;;;;;17.30;99.90;;;;;;5092364;28;19980;-87
2021/09/09 00:08:58;;;;;;;;;;;17.30;99.90;;;;;;5091727;28;20387;-88
2021/09/09 00:11:24;;;;;;;;;;;17.20;99.90;;;;;;5062028;28;19931;-88
2021/09/09 00:13:50;;;;;;;;;;;17.20;99.90;;;;;;5108563;28;19930;-87
2021/09/09 00:16:15;;;;;;;;;;;17.20;99.90;;;;;;5069766;28;19970;-87
2021/09/09 00:18:41;;;;;;;;;;;17.20;99.90;;;;;;5085639;28;19980;-87
2021/09/09 00:21:07;;;;;;;;;;;17.20;99.90;;;;;;5073133;28;19971;-88
2021/09/09 00:23:32;;;;;;;;;;;17.20;99.90;;;;;;5089679;28;20445;-88
2021/09/09 00:25:58;;;;;;;;;;;17.20;99.90;;;;;;5115079;27;19959;-88
2021/09/09 00:28:23;;;;;;;;;;;17.20;99.90;;;;;;5117038;27;20006;-87
2021/09/09 00:30:51;;;;;;;;;;;17.20;99.90;;;;;;5101393;28;20432;-87
2021/09/09 00:33:17;;;;;;;;;;;17.10;99.90;;;;;;5064692;28;19923;-87
2021/09/09 00:35:43;;;;;;;;;;;17.10;99.90;;;;;;5114134;27;19920;-87
2021/09/09 00:38:08;;;;;;;;;;;17.10;99.90;;;;;;5113472;27;20428;-88
2021/09/09 00:40:34;;;;;;;;;;;17.10;99.90;;;;;;5100539;28;19964;-87
2021/09/09 00:43:00;;;;;;;;;;;17.10;99.90;;;;;;5083834;28;19927;-87
2021/09/09 00:45:26;;;;;;;;;;;17.10;99.90;;;;;;5124528;27;19923;-88
2021/09/09 00:47:51;;;;;;;;;;;17.00;99.90;;;;;;5090589;28;20297;-87
2021/09/09 00:50:17;;;;;;;;;;;17.00;99.90;;;;;;5091716;28;19919;-87
2021/09/09 00:52:52;;;;;;;;;;;17.00;99.90;;;;;;5072637;28;19919;-88
2021/09/09 00:55:18;;;;;;;;;;;17.00;99.90;;;;;;5091343;28;19931;-88
2021/09/09 00:57:44;;;;;;;;;;;17.00;99.90;;;;;;5090591;28;19919;-88
2021/09/09 01:00:10;;;;;;;;;;;16.90;99.90;;;;;;5072614;28;19924;-87
2021/09/09 01:02:35;;;;;;;;;;;16.90;99.90;;;;;;5090664;28;19999;-87
2021/09/09 01:05:01;;;;;;;;;;;16.90;99.90;;;;;;5091346;28;19960;-88
2021/09/09 01:07:27;;;;;;;;;;;16.90;99.90;;;;;;5106149;28;19936;-87
2021/09/09 01:09:53;;;;;;;;;;;16.90;99.90;;;;;;5108466;28;19944;-87
2021/09/09 01:12:19;;;;;;;;;;;16.90;99.90;;;;;;5091307;28;19967;-87
2021/09/09 01:14:44;;;;;;;;;;;16.90;99.90;;;;;;5090153;28;19985;-87
2021/09/09 01:17:10;;;;;;;;;;;16.80;99.90;;;;;;5107690;28;19930;-87
2021/09/09 01:19:36;;;;;;;;;;;16.80;99.90;;;;;;5090483;28;20558;-87
2021/09/09 01:22:02;;;;;;;;;;;16.80;99.90;;;;;;5089113;28;19927;-88
2021/09/09 01:24:28;;;;;;;;;;;16.80;99.90;;;;;;5108454;27;20398;-88
2021/09/09 01:26:55;;;;;;;;;;;16.80;99.90;;;;;;5083523;28;19928;-87
2021/09/09 01:29:22;;;;;;;;;;;16.80;99.90;;;;;;5104687;27;19924;-88
2021/09/09 01:31:48;;;;;;;;;;;16.80;99.90;;;;;;5085432;28;19924;-88
2021/09/09 01:34:14;;;;;;;;;;;16.80;99.90;;;;;;5068246;28;20425;-88
2021/09/09 01:36:40;;;;;;;;;;;16.80;99.90;;;;;;5109108;28;20477;-88
2021/09/09 01:39:05;;;;;;;;;;;16.80;99.90;;;;;;5123799;27;20302;-87
2021/09/09 01:41:31;;;;;;;;;;;16.70;99.90;;;;;;5108219;28;19923;-87
2021/09/09 01:43:56;;;;;;;;;;;16.70;99.90;;;;;;5090134;28;19963;-88
2021/09/09 01:46:22;;;;;;;;;;;16.70;99.90;;;;;;5091620;28;19923;-87
2021/09/09 01:48:47;;;;;;;;;;;16.70;99.90;;;;;;5087616;28;20042;-88
2021/09/09 01:51:13;;;;;;;;;;;16.70;99.90;;;;;;5091266;28;19919;-87
2021/09/09 01:53:38;;;;;;;;;;;16.70;99.90;;;;;;5105059;28;20020;-87
2021/09/09 01:56:04;;;;;;;;;;;16.70;99.90;;;;;;5072669;28;20010;-88
2021/09/09 01:58:30;;;;;;;;;;;16.70;99.90;;;;;;5101400;27;19924;-87
2021/09/09 02:00:57;;;;;;;;;;;16.70;99.90;;;;;;5106632;27;20050;-88
2021/09/09 02:03:25;;;;;;;;;;;16.70;99.90;;;;;;5088992;28;20339;-87
2021/09/09 02:05:51;;;;;;;;;;;16.70;99.90;;;;;;5080363;28;19928;-87
2021/09/09 02:08:17;;;;;;;;;;;16.60;99.90;;;;;;5097194;27;19935;-88
2021/09/09 02:10:43;;;;;;;;;;;16.60;99.90;;;;;;5107195;28;20268;-87
2021/09/09 02:13:08;;;;;;;;;;;16.60;99.90;;;;;;5090003;28;20302;-88
2021/09/09 02:15:34;;;;;;;;;;;16.60;99.90;;;;;;5089027;28;19924;-88
2021/09/09 02:18:00;;;;;;;;;;;16.50;99.90;;;;;;5090052;28;19919;-87
2021/09/09 02:20:26;;;;;;;;;;;16.50;99.90;;;;;;5090036;28;19938;-87
2021/09/09 02:22:52;;;;;;;;;;;16.50;99.90;;;;;;5089129;28;19931;-88
2021/09/09 02:25:17;;;;;;;;;;;16.50;99.90;;;;;;5095013;28;20409;-88
2021/09/09 02:27:44;;;;;;;;;;;16.50;99.90;;;;;;5076898;28;19923;-88
2021/09/09 02:30:10;;;;;;;;;;;16.50;99.90;;;;;;5075637;28;19923;-88
2021/09/09 02:32:35;;;;;;;;;;;16.50;99.90;;;;;;5093461;28;20332;-87
2021/09/09 02:35:01;;;;;;;;;;;16.50;99.90;;;;;;5128513;27;19931;-87
2021/09/09 02:37:26;;;;;;;;;;;16.40;99.90;;;;;;5116936;27;19924;-87
2021/09/09 02:39:52;;;;;;;;;;;16.40;99.90;;;;;;5110337;28;19963;-87
2021/09/09 02:42:18;;;;;;;;;;;16.40;99.90;;;;;;5119731;27;19924;-88
2021/09/09 02:44:43;;;;;;;;;;;16.40;99.90;;;;;;5105526;28;20022;-87
2021/09/09 02:47:09;;;;;;;;;;;16.40;99.90;;;;;;5094136;28;19927;-87
2021/09/09 02:49:34;;;;;;;;;;;16.40;99.90;;;;;;5110162;28;20621;-88
2021/09/09 02:52:00;;;;;;;;;;;16.40;99.90;;;;;;5091848;28;19934;-87
2021/09/09 02:54:25;;;;;;;;;;;16.30;99.90;;;;;;5094117;28;19927;-87
2021/09/09 02:56:51;;;;;;;;;;;16.30;99.90;;;;;;5111328;28;19976;-88
2021/09/09 02:59:17;;;;;;;;;;;16.30;99.90;;;;;;5092549;28;20410;-88
2021/09/09 03:01:42;;;;;;;;;;;16.30;99.90;;;;;;5105175;28;19969;-87
2021/09/09 03:04:08;;;;;;;;;;;16.30;99.90;;;;;;5109784;28;20311;-87
2021/09/09 03:06:33;;;;;;;;;;;16.30;99.90;;;;;;5111442;27;19916;-88
2021/09/09 03:08:59;;;;;;;;;;;16.20;99.90;;;;;;5082861;28;20344;-87
2021/09/09 03:11:25;;;;;;;;;;;16.20;99.90;;;;;;5125920;27;20406;-87
2021/09/09 03:13:50;;;;;;;;;;;16.20;99.90;;;;;;5109303;28;19931;-88
2021/09/09 03:16:16;;;;;;;;;;;16.20;99.90;;;;;;5100861;28;20024;-87
2021/09/09 03:18:42;;;;;;;;;;;16.20;99.90;;;;;;5073715;28;19930;-88
2021/09/09 03:21:07;;;;;;;;;;;16.10;99.90;;;;;;5108252;28;20340;-88
2021/09/09 03:23:33;;;;;;;;;;;16.20;99.90;;;;;;5092632;28;20272;-88
2021/09/09 03:25:58;;;;;;;;;;;16.20;99.90;;;;;;5104015;28;19927;-88
2021/09/09 03:28:24;;;;;;;;;;;16.10;99.90;;;;;;5088195;28;20378;-88
2021/09/09 03:30:49;;;;;;;;;;;16.20;99.90;;;;;;5109326;28;19944;-87
2021/09/09 03:33:15;;;;;;;;;;;16.10;99.90;;;;;;5074367;28;19969;-88
2021/09/09 03:35:41;;;;;;;;;;;16.10;99.90;;;;;;5124755;27;19999;-88
2021/09/09 03:38:09;;;;;;;;;;;16.10;99.90;;;;;;5110375;28;20001;-88
2021/09/09 03:40:35;;;;;;;;;;;16.10;99.90;;;;;;5126519;27;19920;-87
2021/09/09 03:43:00;;;;;;;;;;;16.10;99.90;;;;;;5091204;28;19979;-88
2021/09/09 03:45:26;;;;;;;;;;;16.10;99.90;;;;;;5107566;27;19931;-88
2021/09/09 03:47:51;;;;;;;;;;;16.10;99.90;;;;;;5103528;28;19924;-87
2021/09/09 03:50:17;;;;;;;;;;;16.00;99.90;;;;;;5074161;28;19924;-87
2021/09/09 03:52:42;;;;;;;;;;;16.00;99.90;;;;;;5091940;28;20314;-87
2021/09/09 03:55:08;;;;;;;;;;;16.00;99.90;;;;;;5092596;28;19924;-87
2021/09/09 03:57:34;;;;;;;;;;;16.00;99.90;;;;;;5074623;28;19973;-87
2021/09/09 03:59:59;;;;;;;;;;;15.90;99.90;;;;;;5092175;28;19963;-88
2021/09/09 04:02:25;;;;;;;;;;;16.00;99.90;;;;;;5091306;28;20447;-87
2021/09/09 04:04:51;;;;;;;;;;;15.90;99.90;;;;;;5070864;28;19931;-88
2021/09/09 04:07:16;;;;;;;;;;;15.90;99.90;;;;;;5074880;28;20402;-87
2021/09/09 04:09:42;;;;;;;;;;;15.90;99.90;;;;;;5105553;28;19924;-87
2021/09/09 04:12:07;;;;;;;;;;;15.90;99.90;;;;;;5097614;28;19919;-88
2021/09/09 04:14:33;;;;;;;;;;;15.90;99.90;;;;;;5073893;28;19930;-88
2021/09/09 04:16:59;;;;;;;;;;;15.90;99.90;;;;;;5074882;28;19919;-88
2021/09/09 04:19:25;;;;;;;;;;;15.90;99.90;;;;;;5092154;28;20897;-87
2021/09/09 04:21:51;;;;;;;;;;;15.90;99.90;;;;;;5090247;28;20722;-87
2021/09/09 04:24:17;;;;;;;;;;;15.90;99.90;;;;;;5090787;28;19927;-87
2021/09/09 04:26:43;;;;;;;;;;;15.90;99.90;;;;;;5125844;27;20409;-87
2021/09/09 04:29:08;;;;;;;;;;;15.80;99.90;;;;;;5090733;28;19923;-87
2021/09/09 04:31:34;;;;;;;;;;;15.90;99.90;;;;;;5107532;28;19927;-88
2021/09/09 04:34:00;;;;;;;;;;;15.80;99.90;;;;;;5074715;28;19924;-88
2021/09/09 04:36:26;;;;;;;;;;;15.80;99.90;;;;;;5090196;28;19973;-87
2021/09/09 04:38:51;;;;;;;;;;;15.80;99.90;;;;;;5092777;28;19927;-87
2021/09/09 04:41:17;;;;;;;;;;;15.80;99.90;;;;;;5073867;28;19935;-88
2021/09/09 04:43:42;;;;;;;;;;;15.70;99.90;;;;;;5073447;28;19932;-87
2021/09/09 04:46:08;;;;;;;;;;;15.80;99.90;;;;;;5088370;28;19920;-87
2021/09/09 04:48:33;;;;;;;;;;;15.80;99.90;;;;;;5107650;28;20002;-87
2021/09/09 04:50:59;;;;;;;;;;;15.80;99.90;;;;;;5090358;28;19969;-88
2021/09/09 04:53:25;;;;;;;;;;;15.80;99.90;;;;;;5077716;28;19986;-88
2021/09/09 04:55:50;;;;;;;;;;;15.70;99.90;;;;;;5091277;28;19920;-87
2021/09/09 04:58:16;;;;;;;;;;;15.70;99.90;;;;;;5106943;28;19923;-88
2021/09/09 05:00:41;;;;;;;;;;;15.70;99.90;;;;;;5074929;28;19946;-88
2021/09/09 05:03:07;;;;;;;;;;;15.70;99.90;;;;;;5072702;28;19928;-88
2021/09/09 05:05:33;;;;;;;;;;;15.70;99.90;;;;;;5074881;28;20002;-89
2021/09/09 05:07:58;;;;;;;;;;;15.70;99.90;;;;;;5071533;28;20432;-89
2021/09/09 05:10:24;;;;;;;;;;;15.70;99.90;;;;;;5118916;27;19924;-88
2021/09/09 05:12:49;;;;;;;;;;;15.70;99.90;;;;;;5079655;28;19916;-89
2021/09/09 05:15:15;;;;;;;;;;;15.70;99.90;;;;;;5109635;28;19923;-89
2021/09/09 05:17:41;;;;;;;;;;;15.70;99.90;;;;;;5124423;27;20375;-89
2021/09/09 05:20:07;;;;;;;;;;;15.70;99.90;;;;;;5107293;28;19930;-90
2021/09/09 05:22:34;;;;;;;;;;;15.70;99.90;;;;;;5091715;28;19943;-90
2021/09/09 05:25:00;;;;;;;;;;;15.60;99.90;;;;;;5091554;28;20182;-89
2021/09/09 05:27:25;;;;;;;;;;;15.60;99.90;;;;;;5095730;28;20260;-89
2021/09/09 05:29:51;;;;;;;;;;;15.60;99.90;;;;;;5102586;27;19924;-87
2021/09/09 05:32:16;;;;;;;;;;;15.60;99.90;;;;;;5086633;28;19928;-87
2021/09/09 05:34:42;;;;;;;;;;;15.60;99.90;;;;;;5112288;27;19924;-87
2021/09/09 05:37:07;;;;;;;;;;;15.60;99.90;;;;;;5066140;28;19924;-87
2021/09/09 05:39:33;;;;;;;;;;;15.60;99.90;;;;;;5101623;27;19971;-88
2021/09/09 05:41:59;;;;;;;;;;;15.50;99.90;;;;;;5099606;28;20006;-88
2021/09/09 05:44:24;;;;;;;;;;;15.50;99.90;;;;;;5104765;28;19924;-88
2021/09/09 05:46:50;;;;;;;;;;;15.50;99.90;;;;;;5106236;28;19920;-88
2021/09/09 05:49:15;;;;;;;;;;;15.50;99.90;;;;;;5105827;28;19923;-87
2021/09/09 05:51:41;;;;;;;;;;;15.50;99.90;;;;;;5082247;28;20095;-87
2021/09/09 05:54:07;;;;;;;;;;;15.50;99.90;;;;;;5128003;27;19923;-88
2021/09/09 05:56:32;;;;;;;;;;;15.50;99.90;;;;;;5113806;27;20053;-87
2021/09/09 05:58:58;;;;;;;;;;;15.50;99.90;;;;;;5103581;27;19924;-87
2021/09/09 06:01:24;;;;;;;;;;;15.60;99.90;;;;;;5113778;27;20004;-87
2021/09/09 06:03:50;;;;;;;;;;;15.60;99.90;;;;;;5121929;27;19934;-87
2021/09/09 06:06:16;;;;;;;;;;;15.60;99.90;;;;;;5105852;28;19934;-87
2021/09/09 06:08:43;;;;;;;;;;;15.60;99.90;;;;;;5086251;28;19927;-87
2021/09/09 06:11:08;;;;;;;;;;;15.60;99.90;;;;;;5105687;28;19923;-87
2021/09/09 06:13:34;;;;;;;;;;;15.70;99.90;;;;;;5113860;27;19931;-87
2021/09/09 06:15:59;;;;;;;;;;;15.70;99.90;;;;;;5142361;27;19923;-87
2021/09/09 06:18:25;;;;;;;;;;;15.80;99.90;;;;;;5116655;27;19950;-87
2021/09/09 06:20:51;;;;;;;;;;;15.80;99.90;;;;;;5119441;27;19930;-87
2021/09/09 06:23:16;;;;;;;;;;;15.80;99.90;;;;;;5104329;28;19923;-87
2021/09/09 06:25:42;;;;;;;;;;;15.80;99.90;;;;;;5102393;27;20260;-87
2021/09/09 06:28:09;;;;;;;;;;;15.90;99.90;;;;;;5094429;28;19931;-87
2021/09/09 06:30:35;;;;;;;;;;;15.90;99.90;;;;;;5087169;28;19964;-87
2021/09/09 06:33:01;;;;;;;;;;;15.90;99.90;;;;;;5085100;28;20005;-87
2021/09/09 06:35:29;;;;;;;;;;;16.00;99.90;;;;;;5065786;28;19959;-88
2021/09/09 06:37:55;;;;;;;;;;;16.00;99.90;;;;;;5103376;28;19928;-87
2021/09/09 06:40:21;;;;;;;;;;;16.00;99.90;;;;;;5122931;27;19927;-87
2021/09/09 06:42:47;;;;;;;;;;;16.10;99.90;;;;;;5105818;28;19923;-87
2021/09/09 06:45:13;;;;;;;;;;;16.10;99.90;;;;;;5091278;28;19928;-87
2021/09/09 06:47:39;;;;;;;;;;;16.10;99.90;;;;;;5106807;28;20004;-87
2021/09/09 06:50:05;;;;;;;;;;;16.10;99.90;;;;;;5090024;28;20014;-87
2021/09/09 06:52:31;;;;;;;;;;;16.20;99.90;;;;;;5098820;28;19919;-89
2021/09/09 06:54:56;;;;;;;;;;;16.20;99.90;;;;;;5110029;28;20268;-88
2021/09/09 06:57:22;;;;;;;;;;;16.30;99.90;;;;;;5075417;28;19924;-88
2021/09/09 06:59:47;;;;;;;;;;;16.30;99.90;;;;;;5092642;28;20231;-87
2021/09/09 07:02:13;;;;;;;;;;;16.40;99.90;;;;;;5074890;28;19916;-87
2021/09/09 07:04:38;;;;;;;;;;;16.40;99.90;;;;;;5104887;28;19928;-87
2021/09/09 07:07:04;;;;;;;;;;;16.40;99.90;;;;;;5105474;28;20573;-87
2021/09/09 07:09:30;;;;;;;;;;;16.50;99.90;;;;;;5105916;28;19961;-88
2021/09/09 07:11:55;;;;;;;;;;;16.50;99.90;;;;;;5120836;27;19920;-88
2021/09/09 07:14:21;;;;;;;;;;;16.60;99.90;;;;;;5124283;27;19927;-87
2021/09/09 07:16:47;;;;;;;;;;;16.60;99.90;;;;;;5109340;28;19923;-88
2021/09/09 07:19:12;;;;;;;;;;;16.60;99.90;;;;;;5124406;27;20405;-87
2021/09/09 07:21:39;;;;;;;;;;;16.70;99.90;;;;;;5125021;27;19928;-87
2021/09/09 07:24:05;;;;;;;;;;;16.80;99.90;;;;;;5055545;28;19935;-87
2021/09/09 07:26:30;;;;;;;;;;;16.80;99.90;;;;;;5122897;27;19920;-88
2021/09/09 07:28:56;;;;;;;;;;;16.90;99.90;;;;;;5107258;28;19924;-87
2021/09/09 07:31:22;;;;;;;;;;;16.90;99.90;;;;;;5093015;28;19965;-87
2021/09/09 07:33:47;;;;;;;;;;;16.90;99.90;;;;;;5075186;28;20294;-87
2021/09/09 07:36:13;;;;;;;;;;;17.00;99.90;;;;;;5126853;27;21590;-88
2021/09/09 07:38:39;;;;;;;;;;;17.00;99.90;;;;;;5111152;28;19926;-88
2021/09/09 07:41:04;;;;;;;;;;;17.10;99.90;;;;;;5125188;27;19924;-87
2021/09/09 07:43:30;;;;;;;;;;;17.10;99.90;;;;;;5109687;28;19928;-88
2021/09/09 07:45:56;;;;;;;;;;;17.20;99.90;;;;;;5110613;28;19923;-88
2021/09/09 07:48:22;;;;;;;;;;;17.20;99.90;;;;;;5126081;27;19949;-87
2021/09/09 07:50:48;;;;;;;;;;;17.30;99.90;;;;;;5126915;27;20461;-88
2021/09/09 07:53:13;;;;;;;;;;;17.30;99.90;;;;;;5127054;27;19926;-87
2021/09/09 07:55:39;;;;;;;;;;;17.30;99.90;;;;;;5109120;28;19923;-87
2021/09/09 07:58:05;;;;;;;;;;;17.40;99.90;;;;;;5110317;28;20446;-87
2021/09/09 08:00:30;;;;;;;;;;;17.40;99.90;;;;;;5126695;27;19919;-88
2021/09/09 08:02:56;;;;;;;;;;;17.50;99.90;;;;;;5125132;27;19934;-87
2021/09/09 08:05:21;;;;;;;;;;;17.50;99.90;;;;;;5109726;28;19928;-87
2021/09/09 08:07:47;;;;;;;;;;;17.50;99.90;;;;;;5126942;27;19924;-88
2021/09/09 08:10:15;;;;;;;;;;;17.60;99.90;;;;;;5108624;28;20003;-87
2021/09/09 08:12:45;;;;;;;;;;;17.70;99.90;;;;;;5108364;28;19923;-88
2021/09/09 08:15:11;;;;;;;;;;;17.70;99.90;;;;;;5109815;28;19924;-87
2021/09/09 08:17:36;;;;;;;;;;;17.80;99.90;;;;;;5073100;28;20014;-87
2021/09/09 08:20:02;;;;;;;;;;;17.80;99.90;;;;;;5106744;28;19924;-88
2021/09/09 08:22:28;;;;;;;;;;;17.90;99.90;;;;;;5101865;28;19924;-88
2021/09/09 08:24:54;;;;;;;;;;;17.90;99.90;;;;;;5074388;28;19926;-87
2021/09/09 08:27:19;;;;;;;;;;;17.90;99.90;;;;;;5076532;28;19924;-87
2021/09/09 08:29:45;;;;;;;;;;;18.00;99.90;;;;;;5089632;28;19924;-88
2021/09/09 08:32:11;;;;;;;;;;;18.00;99.90;;;;;;5102625;28;19927;-88
2021/09/09 08:34:37;;;;;;;;;;;18.10;99.90;;;;;;5105884;28;19930;-88
2021/09/09 08:37:02;;;;;;;;;;;18.10;99.90;;;;;;5105396;28;19924;-88
2021/09/09 08:39:28;;;;;;;;;;;18.20;99.90;;;;;;5071268;28;19943;-87
2021/09/09 08:41:54;;;;;;;;;;;18.20;99.90;;;;;;5108102;28;19920;-87
2021/09/09 08:44:19;;;;;;;;;;;18.30;99.90;;;;;;5074916;28;20022;-87
2021/09/09 08:46:45;;;;;;;;;;;18.30;99.90;;;;;;5091258;28;19920;-87
2021/09/09 08:49:11;;;;;;;;;;;18.40;99.90;;;;;;5091893;28;19924;-87
2021/09/09 08:51:36;;;;;;;;;;;18.40;99.90;;;;;;5092548;28;19931;-87
2021/09/09 08:54:02;;;;;;;;;;;18.50;99.90;;;;;;5072762;28;20374;-87
2021/09/09 08:56:28;;;;;;;;;;;18.50;99.90;;;;;;5091329;28;19919;-87
2021/09/09 08:58:54;;;;;;;;;;;18.60;99.90;;;;;;5109132;28;19993;-88
2021/09/09 09:01:19;;;;;;;;;;;18.70;99.90;;;;;;5124656;27;20241;-88
2021/09/09 09:03:45;;;;;;;;;;;18.70;99.90;;;;;;5102758;28;19947;-87
2021/09/09 09:06:30;;;;;;;;;;;18.80;99.90;;;;;;5088310;28;19928;-88
2021/09/09 09:08:56;;;;;;;;;;;18.80;99.90;;;;;;5091152;28;19928;-88
2021/09/09 09:11:22;;;;;;;;;;;18.80;99.90;;;;;;5105638;28;20366;-87
2021/09/09 09:13:47;;;;;;;;;;;18.90;99.90;;;;;;5105340;28;19927;-87
2021/09/09 09:16:13;;;;;;;;;;;19.00;99.90;;;;;;5095748;28;20414;-87
2021/09/09 09:18:41;;;;;;;;;;;19.10;99.90;;;;;;5105483;28;20361;-87
2021/09/09 09:21:07;;;;;;;;;;;19.10;99.90;;;;;;5072529;28;20007;-87
2021/09/09 09:23:32;;;;;;;;;;;19.10;99.90;;;;;;5090291;28;20018;-87
2021/09/09 09:25:59;;;;;;;;;;;19.20;99.90;;;;;;5088371;28;20015;-87
2021/09/09 09:28:38;;;;;;;;;;;19.30;99.90;;;;;;5104557;28;19923;-88
2021/09/09 09:31:08;;;;;;;;;;;19.30;99.90;;;;;;5115736;28;19923;-87
2021/09/09 09:33:35;;;;;;;;;;;19.40;99.90;;;;;;5107552;28;19924;-87
2021/09/09 09:36:15;;;;;;;;;;;19.40;99.90;;;;;;5125054;27;20014;-88
2021/09/09 09:38:40;;;;;;;;;;;19.40;99.90;;;;;;5090333;28;20271;-88
2021/09/09 09:41:06;;;;;;;;;;;19.50;99.90;;;;;;5118839;27;19924;-87
2021/09/09 09:43:31;;;;;;;;;;;19.50;99.90;;;;;;5104576;28;20484;-87
2021/09/09 09:45:59;;;;;;;;;;;19.60;99.90;;;;;;5102685;28;19973;-87
2021/09/09 09:48:25;;;;;;;;;;;19.70;99.90;;;;;;5088129;28;19927;-88
2021/09/09 09:50:50;;;;;;;;;;;19.70;99.90;;;;;;5092398;28;20386;-88
2021/09/09 09:53:17;;;;;;;;;;;19.80;99.90;;;;;;5106352;28;19932;-87
2021/09/09 09:55:43;;;;;;;;;;;19.80;99.90;;;;;;5090247;28;20290;-87
2021/09/09 09:58:09;;;;;;;;;;;19.90;99.90;;;;;;5124767;27;19928;-87
2021/09/09 10:00:35;;;;;;;;;;;19.90;99.90;;;;;;5124326;28;20086;-87
2021/09/09 10:03:01;;;;;;;;;;;20.00;99.90;;;;;;5090503;28;19998;-87
2021/09/09 10:05:28;;;;;;;;;;;20.10;99.90;;;;;;5090757;28;20406;-87
2021/09/09 10:07:54;;;;;;;;;;;20.10;99.90;;;;;;5123740;27;20371;-88
2021/09/09 10:10:20;;;;;;;;;;;20.20;99.90;;;;;;5108673;28;19919;-87
2021/09/09 10:12:49;;;;;;;;;;;20.20;99.90;;;;;;5124933;27;19959;-88
2021/09/09 10:15:15;;;;;;;;;;;20.30;99.90;;;;;;5106054;28;20462;-87
2021/09/09 10:17:41;;;;;;;;;;;20.40;99.90;;;;;;5124573;28;20344;-87
2021/09/09 10:20:26;;;;;;;;;;;20.40;99.90;;;;;;5124899;27;20006;-87
2021/09/09 10:23:09;;;;;;;;;;;20.40;99.90;;;;;;5140734;27;20367;-88
2021/09/09 10:25:41;;;;;;;;;;;20.50;99.90;;;;;;5070158;28;19920;-87
2021/09/09 10:28:26;;;;;;;;;;;20.50;99.90;;;;;;5104534;28;19924;-86
2021/09/09 10:31:04;;;;;;;;;;;20.50;99.90;;;;;;5123514;27;19920;-87
2021/09/09 10:33:29;;;;;;;;;;;20.60;99.90;;;;;;5104490;28;19930;-88
2021/09/09 10:35:55;;;;;;;;;;;20.70;99.90;;;;;;5103740;28;20290;-87
2021/09/09 10:38:21;;;;;;;;;;;20.70;99.90;;;;;;5102693;28;19931;-88
2021/09/09 10:40:47;;;;;;;;;;;20.70;99.90;;;;;;5088125;28;19924;-87
2021/09/09 10:43:14;;;;;;;;;;;20.80;99.90;;;;;;5103831;28;19928;-88
2021/09/09 10:45:44;;;;;;;;;;;20.80;99.90;;;;;;5105688;28;19926;-87
2021/09/09 10:48:19;;;;;;;;;;;20.80;99.90;;;;;;5108851;28;19926;-87
2021/09/09 10:51:00;;;;;;;;;;;20.90;99.90;;;;;;5111617;28;19920;-87
2021/09/09 10:53:36;;;;;;;;;;;21.00;99.90;;;;;;5092495;28;19930;-87
2021/09/09 10:56:14;;;;;;;;;;;21.00;99.90;;;;;;5115615;27;19924;-88
2021/09/09 10:58:40;;;;;;;;;;;21.10;99.90;;;;;;5107523;28;19999;-87
2021/09/09 11:01:06;;;;;;;;;;;21.10;99.90;;;;;;5106412;28;20065;-88
2021/09/09 11:03:40;;;;;;;;;;;21.10;99.90;;;;;;5073859;28;19948;-87
2021/09/09 11:06:07;;;;;;;;;;;21.20;99.90;;;;;;5097792;28;19976;-87
2021/09/09 11:08:33;;;;;;;;;;;21.20;99.90;;;;;;5125822;27;19982;-87
2021/09/09 11:10:59;;;;;;;;;;;21.20;99.90;;;;;;5128521;27;20005;-88
2021/09/09 11:13:25;;;;;;;;;;;21.30;99.90;;;;;;5109346;27;19927;-87
2021/09/09 11:15:51;;;;;;;;;;;21.30;99.90;;;;;;5109405;28;19920;-87
2021/09/09 11:18:27;;;;;;;;;;;21.40;99.90;;;;;;5122671;27;19938;-88
2021/09/09 11:21:05;;;;;;;;;;;21.50;99.90;;;;;;5090709;28;19943;-87
2021/09/09 11:23:32;;;;;;;;;;;21.60;99.90;;;;;;5074164;28;19928;-87
2021/09/09 11:26:08;;;;;;;;;;;21.70;99.90;;;;;;5127777;27;19924;-88
2021/09/09 11:28:33;;;;;;;;;;;21.80;99.90;;;;;;5127470;27;19924;-88
2021/09/09 11:31:05;;;;;;;;;;;21.90;99.90;;;;;;5091929;28;20264;-88
2021/09/09 11:33:31;;;;;;;;;;;21.90;99.90;;;;;;5110430;28;20382;-87
2021/09/09 11:36:01;;;;;;;;;;;22.00;99.90;;;;;;5076155;28;19924;-87
2021/09/09 11:38:30;;;;;;;;;;;22.00;99.90;;;;;;5090412;28;20287;-88
2021/09/09 11:41:16;;;;;;;;;;;22.10;99.90;;;;;;5112961;27;19928;-88
2021/09/09 11:43:52;;;;;;;;;;;22.10;99.90;;;;;;5092301;28;19923;-90
2021/09/09 11:46:30;;;;;;;;;;;22.20;99.90;;;;;;5092125;28;19931;-88
2021/09/09 11:49:00;;;;;;;;;;;22.30;99.90;;;;;;5091456;28;19919;-87
2021/09/09 11:51:42;;;;;;;;;;;22.40;99.90;;;;;;5090742;28;19966;-87
2021/09/09 11:54:09;;;;;;;;;;;22.40;99.90;;;;;;5109360;28;19935;-88
2021/09/09 11:56:35;;;;;;;;;;;22.50;99.90;;;;;;5091654;28;19919;-88
2021/09/09 11:59:03;;;;;;;;;;;22.50;99.90;;;;;;5089738;28;20397;-87
2021/09/09 12:01:30;;;;;;;;;;;22.60;99.90;;;;;;5073133;28;20374;-88
2021/09/09 12:03:57;;;;;;;;;;;22.60;99.90;;;;;;5091947;28;19924;-87
2021/09/09 12:06:22;;;;;;;;;;;22.60;99.90;;;;;;5107886;28;20326;-88
2021/09/09 12:08:48;;;;;;;;;;;22.60;99.90;;;;;;5080773;28;19924;-87
2021/09/09 12:11:14;;;;;;;;;;;22.60;99.90;;;;;;5093021;28;19929;-87
2021/09/09 12:13:40;;;;;;;;;;;22.60;99.90;;;;;;5113559;27;19919;-87
2021/09/09 12:16:17;;;;;;;;;;;22.70;99.90;;;;;;5108741;28;19931;-87
2021/09/09 12:18:44;;;;;;;;;;;22.70;99.90;;;;;;5141601;27;19924;-87
2021/09/09 12:21:11;;;;;;;;;;;22.70;99.90;;;;;;5124030;27;19924;-87
2021/09/09 12:23:37;;;;;;;;;;;22.70;99.90;;;;;;5087800;28;20238;-87
2021/09/09 12:26:16;;;;;;;;;;;22.70;99.90;;;;;;5108396;28;20420;-88
2021/09/09 12:28:42;;;;;;;;;;;22.70;99.90;;;;;;5105355;28;19923;-87
2021/09/09 12:31:08;;;;;;;;;;;22.80;99.90;;;;;;5116066;27;19934;-87
2021/09/09 12:33:38;;;;;;;;;;;22.80;99.90;;;;;;5109952;27;19923;-88
2021/09/09 12:36:13;;;;;;;;;;;22.80;99.90;;;;;;5093361;27;19972;-87
2021/09/09 12:38:51;;;;;;;;;;;22.80;99.90;;;;;;5083198;28;19924;-88
2021/09/09 12:41:16;;;;;;;;;;;22.80;99.90;;;;;;5105383;27;19924;-87
2021/09/09 12:43:43;;;;;;;;;;;22.90;99.90;;;;;;5088280;28;19931;-88
2021/09/09 12:46:24;;;;;;;;;;;22.90;99.90;;;;;;5102681;28;20294;-87
2021/09/09 12:49:06;;;;;;;;;;;22.90;99.90;;;;;;5101144;28;20226;-88
2021/09/09 12:51:36;;;;;;;;;;;23.00;99.90;;;;;;5103910;28;19927;-87
2021/09/09 12:54:02;;;;;;;;;;;23.10;99.90;;;;;;5102704;28;19980;-87
2021/09/09 12:56:27;;;;;;;;;;;23.10;99.90;;;;;;5108136;28;19920;-88
2021/09/09 12:58:53;;;;;;;;;;;23.20;99.90;;;;;;5107044;28;20014;-87
2021/09/09 13:01:19;;;;;;;;;;;23.30;99.90;;;;;;5107668;28;19923;-88
2021/09/09 13:03:44;;;;;;;;;;;23.30;99.90;;;;;;5088164;28;19935;-87
2021/09/09 13:06:10;;;;;;;;;;;23.50;99.90;;;;;;5103926;28;19924;-88
2021/09/09 13:08:36;;;;;;;;;;;23.50;99.90;;;;;;5106281;28;20375;-86
2021/09/09 13:11:02;;;;;;;;;;;23.60;99.90;;;;;;5074450;28;20210;-87
2021/09/09 13:13:29;;;;;;;;;;;23.60;99.90;;;;;;5090110;28;20443;-88
2021/09/09 13:15:55;;;;;;;;;;;23.70;99.90;;;;;;5107827;28;20303;-88
2021/09/09 13:18:22;;;;;;;;;;;23.70;99.90;;;;;;5074680;28;19920;-87
2021/09/09 13:20:48;;;;;;;;;;;23.70;99.90;;;;;;5086228;28;20671;-87
2021/09/09 13:23:13;;;;;;;;;;;23.70;99.90;;;;;;5124805;27;20037;-88
2021/09/09 13:25:39;;;;;;;;;;;23.70;99.90;;;;;;5124689;27;19982;-87
2021/09/09 13:28:07;;;;;;;;;;;23.70;99.90;;;;;;5088586;28;20371;-87
2021/09/09 13:30:33;;;;;;;;;;;23.60;99.90;;;;;;5091664;28;19923;-88
2021/09/09 13:32:59;;;;;;;;;;;23.60;99.90;;;;;;5090434;28;20274;-87
2021/09/09 13:35:24;;;;;;;;;;;23.60;99.90;;;;;;5089550;28;19920;-88
2021/09/09 13:37:50;;;;;;;;;;;23.80;99.90;;;;;;5108094;28;19924;-88
2021/09/09 13:40:16;;;;;;;;;;;23.90;99.90;;;;;;5108426;28;19920;-88
2021/09/09 13:42:41;;;;;;;;;;;24.00;99.90;;;;;;5113686;27;20374;-88
2021/09/09 13:45:08;;;;;;;;;;;24.20;99.90;;;;;;5087746;28;19924;-87
2021/09/09 13:47:34;;;;;;;;;;;24.20;99.90;;;;;;5095970;28;20271;-87
2021/09/09 13:49:59;;;;;;;;;;;24.20;99.90;;;;;;5089526;28;19930;-88
2021/09/09 13:52:25;;;;;;;;;;;24.30;99.90;;;;;;5066738;28;20011;-88
2021/09/09 13:54:51;;;;;;;;;;;24.30;99.90;;;;;;5104780;28;20362;-88
2021/09/09 13:57:16;;;;;;;;;;;24.40;99.90;;;;;;5119939;27;19920;-88
2021/09/09 13:59:42;;;;;;;;;;;24.30;99.90;;;;;;5087669;28;19931;-87
2021/09/09 14:02:07;;;;;;;;;;;24.40;99.90;;;;;;5123731;27;20065;-88
2021/09/09 14:04:33;;;;;;;;;;;24.40;99.90;;;;;;5072046;28;19935;-87
2021/09/09 14:06:59;;;;;;;;;;;24.50;99.90;;;;;;5090469;28;20035;-88
2021/09/09 14:09:24;;;;;;;;;;;24.70;98.40;;;;;;5070230;28;19927;-88
2021/09/09 14:11:50;;;;;;;;;;;24.70;97.90;;;;;;5086894;28;19927;-87
2021/09/09 14:14:15;;;;;;;;;;;24.70;98.50;;;;;;5102908;28;20872;-87